createdAt,value
2017-01-30T00:00:24.996Z,0
2017-01-30T00:01:24.481Z,0
2017-01-30T00:02:25.345Z,0
2017-01-30T00:03:25.332Z,0
2017-01-30T00:04:24.535Z,0
2017-01-30T00:05:25.294Z,0
2017-01-30T00:06:24.444Z,0
2017-01-30T00:07:24.816Z,0
2017-01-30T00:08:25.205Z,0
2017-01-30T00:09:25.167Z,0
2017-01-30T00:10:24.738Z,0
2017-01-30T00:11:24.770Z,0
2017-01-30T00:12:24.709Z,0
2017-01-30T00:13:24.663Z,0
2017-01-30T00:14:24.642Z,0
2017-01-30T00:15:24.212Z,0
2017-01-30T00:16:24.981Z,0
2017-01-30T00:17:24.576Z,0
2017-01-30T00:18:24.965Z,0
2017-01-30T00:19:24.919Z,0
2017-01-30T00:20:24.886Z,0
2017-01-30T00:21:24.472Z,0
2017-01-30T00:22:24.841Z,0
2017-01-30T00:23:24.116Z,0
2017-01-30T00:24:24.868Z,0
2017-01-30T00:25:24.360Z,0
2017-01-30T00:26:24.731Z,0
2017-01-30T00:27:24.710Z,0
2017-01-30T00:28:24.734Z,0
2017-01-30T00:29:24.699Z,0
2017-01-30T00:30:24.321Z,0
2017-01-30T00:31:24.611Z,0
2017-01-30T00:32:24.588Z,0
2017-01-30T00:33:24.161Z,0
2017-01-30T00:34:24.533Z,0
2017-01-30T00:35:23.750Z,0
2017-01-30T00:36:23.727Z,0
2017-01-30T00:37:24.449Z,0
2017-01-30T00:38:24.434Z,0
2017-01-30T00:39:24.003Z,0
2017-01-30T00:40:24.425Z,0
2017-01-30T00:41:24.354Z,0
2017-01-30T00:42:24.318Z,0
2017-01-30T00:43:23.895Z,0
2017-01-30T00:44:24.288Z,0
2017-01-30T00:45:24.266Z,0
2017-01-30T00:46:23.430Z,0
2017-01-30T00:47:23.004Z,0
2017-01-30T00:48:23.368Z,0
2017-01-30T00:49:23.754Z,0
2017-01-30T00:50:24.166Z,0
2017-01-30T00:51:23.745Z,0
2017-01-30T00:52:24.074Z,0
2017-01-30T00:53:23.734Z,0
2017-01-30T00:54:24.071Z,0
2017-01-30T00:55:23.596Z,0
2017-01-30T00:56:23.967Z,0
2017-01-30T00:57:23.946Z,0
2017-01-30T00:58:23.118Z,0
2017-01-30T00:59:23.084Z,0
2017-01-30T01:00:23.471Z,0
2017-01-30T01:01:23.042Z,0
2017-01-30T01:02:23.411Z,0
2017-01-30T01:03:23.412Z,0
2017-01-30T01:04:23.364Z,0
2017-01-30T01:05:23.808Z,0
2017-01-30T01:06:23.312Z,0
2017-01-30T01:07:23.748Z,0
2017-01-30T01:08:23.714Z,0
2017-01-30T01:09:23.253Z,0
2017-01-30T01:10:22.816Z,0
2017-01-30T01:11:23.188Z,0
2017-01-30T01:12:22.773Z,0
2017-01-30T01:13:23.542Z,0
2017-01-30T01:14:23.517Z,0
2017-01-30T01:15:23.138Z,0
2017-01-30T01:16:23.100Z,0
2017-01-30T01:17:23.446Z,0
2017-01-30T01:18:23.056Z,0
2017-01-30T01:19:22.989Z,0
2017-01-30T01:20:23.015Z,0
2017-01-30T01:21:23.020Z,0
2017-01-30T01:22:22.919Z,0
2017-01-30T01:23:22.940Z,0
2017-01-30T01:24:23.956Z,0
2017-01-30T01:25:22.438Z,0
2017-01-30T01:26:23.258Z,0
2017-01-30T01:27:22.783Z,0
2017-01-30T01:28:22.820Z,0
2017-01-30T01:29:22.745Z,0
2017-01-30T01:30:23.115Z,0
2017-01-30T01:31:22.736Z,0
2017-01-30T01:32:22.710Z,0
2017-01-30T01:33:23.040Z,0
2017-01-30T01:34:22.602Z,0
2017-01-30T01:35:22.626Z,0
2017-01-30T01:36:22.959Z,0
2017-01-30T01:37:22.543Z,0
2017-01-30T01:38:22.552Z,0
2017-01-30T01:39:22.875Z,0
2017-01-30T01:40:22.500Z,0
2017-01-30T01:41:22.457Z,0
2017-01-30T01:42:22.865Z,0
2017-01-30T01:43:22.688Z,0
2017-01-30T01:44:22.497Z,0
2017-01-30T01:45:22.788Z,0
2017-01-30T01:46:22.757Z,0
2017-01-30T01:47:21.891Z,0
2017-01-30T01:48:21.906Z,0
2017-01-30T01:49:22.629Z,0
2017-01-30T01:50:22.610Z,0
2017-01-30T01:51:22.642Z,0
2017-01-30T01:52:22.553Z,0
2017-01-30T01:53:22.537Z,0
2017-01-30T01:54:22.104Z,0
2017-01-30T01:55:22.141Z,0
2017-01-30T01:56:22.062Z,0
2017-01-30T01:57:22.435Z,0
2017-01-30T01:58:22.409Z,0
2017-01-30T01:59:22.383Z,0
2017-01-30T02:00:22.381Z,0
2017-01-30T02:01:21.548Z,0
2017-01-30T02:02:21.909Z,0
2017-01-30T02:03:21.886Z,0
2017-01-30T02:04:22.256Z,0
2017-01-30T02:05:22.218Z,0
2017-01-30T02:06:22.469Z,0
2017-01-30T02:07:21.383Z,0
2017-01-30T02:08:21.810Z,0
2017-01-30T02:09:22.128Z,0
2017-01-30T02:10:21.717Z,0
2017-01-30T02:11:21.732Z,0
2017-01-30T02:12:21.652Z,0
2017-01-30T02:13:22.026Z,0
2017-01-30T02:14:21.598Z,0
2017-01-30T02:15:21.677Z,0
2017-01-30T02:16:21.960Z,0
2017-01-30T02:17:22.021Z,0
2017-01-30T02:18:21.912Z,0
2017-01-30T02:19:21.924Z,0
2017-01-30T02:20:21.902Z,0
2017-01-30T02:21:21.878Z,0
2017-01-30T02:22:21.004Z,0
2017-01-30T02:23:21.769Z,0
2017-01-30T02:24:21.362Z,0
2017-01-30T02:25:21.767Z,0
2017-01-30T02:26:21.697Z,0
2017-01-30T02:27:21.273Z,0
2017-01-30T02:28:21.280Z,0
2017-01-30T02:29:20.429Z,0
2017-01-30T02:30:21.595Z,0
2017-01-30T02:31:21.605Z,0
2017-01-30T02:32:21.199Z,0
2017-01-30T02:33:21.134Z,0
2017-01-30T02:34:21.103Z,0
2017-01-30T02:35:21.073Z,0
2017-01-30T02:36:21.048Z,0
2017-01-30T02:37:21.421Z,0
2017-01-30T02:38:20.597Z,0
2017-01-30T02:39:21.369Z,0
2017-01-30T02:40:21.368Z,0
2017-01-30T02:41:20.917Z,0
2017-01-30T02:42:20.496Z,0
2017-01-30T02:43:20.925Z,0
2017-01-30T02:44:20.840Z,0
2017-01-30T02:45:21.209Z,0
2017-01-30T02:46:20.799Z,0
2017-01-30T02:47:21.177Z,0
2017-01-30T02:48:21.187Z,0
2017-01-30T02:49:20.546Z,0
2017-01-30T02:50:21.144Z,0
2017-01-30T02:51:20.466Z,0
2017-01-30T02:52:20.637Z,0
2017-01-30T02:53:21.233Z,0
2017-01-30T02:54:20.984Z,0
2017-01-30T02:55:20.955Z,0
2017-01-30T02:56:20.932Z,0
2017-01-30T02:57:21.115Z,0
2017-01-30T02:58:20.549Z,0
2017-01-30T02:59:20.918Z,0
2017-01-30T03:00:20.888Z,0
2017-01-30T03:01:20.817Z,0
2017-01-30T03:02:20.382Z,0
2017-01-30T03:03:20.362Z,0
2017-01-30T03:04:20.328Z,0
2017-01-30T03:05:19.915Z,0
2017-01-30T03:06:20.677Z,0
2017-01-30T03:07:20.666Z,0
2017-01-30T03:08:20.681Z,0
2017-01-30T03:09:20.203Z,0
2017-01-30T03:10:19.789Z,0
2017-01-30T03:11:20.157Z,0
2017-01-30T03:12:20.527Z,0
2017-01-30T03:13:20.116Z,0
2017-01-30T03:14:20.533Z,0
2017-01-30T03:15:20.056Z,0
2017-01-30T03:16:20.477Z,0
2017-01-30T03:17:19.998Z,0
2017-01-30T03:18:20.366Z,0
2017-01-30T03:19:20.347Z,0
2017-01-30T03:20:19.942Z,0
2017-01-30T03:21:20.356Z,0
2017-01-30T03:22:20.278Z,0
2017-01-30T03:23:20.768Z,0
2017-01-30T03:24:19.824Z,0
2017-01-30T03:25:19.794Z,0
2017-01-30T03:26:19.427Z,0
2017-01-30T03:27:19.348Z,0
2017-01-30T03:28:20.002Z,0
2017-01-30T03:29:19.748Z,0
2017-01-30T03:30:34.192Z,0
2017-01-30T03:31:20.093Z,0
2017-01-30T03:32:19.618Z,0
2017-01-30T03:33:19.998Z,0
2017-01-30T03:34:19.583Z,0
2017-01-30T03:35:19.535Z,0
2017-01-30T03:36:19.513Z,0
2017-01-30T03:37:19.900Z,0
2017-01-30T03:38:19.899Z,0
2017-01-30T03:39:19.438Z,0
2017-01-30T03:40:19.621Z,0
2017-01-30T03:41:19.881Z,0
2017-01-30T03:42:19.765Z,0
2017-01-30T03:43:19.734Z,0
2017-01-30T03:44:19.326Z,0
2017-01-30T03:45:19.358Z,0
2017-01-30T03:46:19.663Z,0
2017-01-30T03:47:19.227Z,0
2017-01-30T03:48:19.613Z,0
2017-01-30T03:49:19.242Z,0
2017-01-30T03:50:19.575Z,0
2017-01-30T03:51:19.541Z,0
2017-01-30T03:52:19.557Z,0
2017-01-30T03:53:19.507Z,0
2017-01-30T03:54:19.733Z,0
2017-01-30T03:55:19.438Z,0
2017-01-30T03:56:19.424Z,0
2017-01-30T03:57:19.008Z,0
2017-01-30T03:58:18.952Z,0
2017-01-30T03:59:18.976Z,0
2017-01-30T04:00:19.305Z,0
2017-01-30T04:01:18.877Z,0
2017-01-30T04:02:19.264Z,0
2017-01-30T04:03:18.834Z,0
2017-01-30T04:04:19.198Z,0
2017-01-30T04:05:19.174Z,0
2017-01-30T04:06:18.757Z,0
2017-01-30T04:07:19.129Z,0
2017-01-30T04:08:19.110Z,0
2017-01-30T04:09:19.075Z,0
2017-01-30T04:10:18.653Z,0
2017-01-30T04:11:19.031Z,0
2017-01-30T04:12:18.596Z,0
2017-01-30T04:13:18.576Z,0
2017-01-30T04:14:18.546Z,0
2017-01-30T04:15:18.126Z,0
2017-01-30T04:16:18.901Z,0
2017-01-30T04:17:18.866Z,0
2017-01-30T04:18:18.703Z,0
2017-01-30T04:19:18.820Z,0
2017-01-30T04:20:18.796Z,0
2017-01-30T04:21:19.077Z,0
2017-01-30T04:22:18.343Z,0
2017-01-30T04:23:18.713Z,0
2017-01-30T04:24:18.293Z,0
2017-01-30T04:25:18.773Z,0
2017-01-30T04:26:18.246Z,0
2017-01-30T04:27:18.615Z,0
2017-01-30T04:28:18.190Z,0
2017-01-30T04:29:19.013Z,0
2017-01-30T04:30:18.145Z,0
2017-01-30T04:31:19.068Z,0
2017-01-30T04:32:18.492Z,0
2017-01-30T04:33:18.520Z,0
2017-01-30T04:34:18.444Z,0
2017-01-30T04:35:18.423Z,0
2017-01-30T04:36:18.463Z,0
2017-01-30T04:37:17.567Z,0
2017-01-30T04:38:17.940Z,0
2017-01-30T04:39:18.315Z,0
2017-01-30T04:40:17.925Z,0
2017-01-30T04:41:17.865Z,0
2017-01-30T04:42:17.840Z,0
2017-01-30T04:43:18.218Z,0
2017-01-30T04:44:18.185Z,0
2017-01-30T04:45:17.762Z,0
2017-01-30T04:46:17.336Z,0
2017-01-30T04:47:18.113Z,0
2017-01-30T04:48:17.778Z,0
2017-01-30T04:49:18.063Z,0
2017-01-30T04:50:18.038Z,0
2017-01-30T04:51:17.209Z,0
2017-01-30T04:52:17.573Z,0
2017-01-30T04:53:17.559Z,0
2017-01-30T04:54:17.528Z,0
2017-01-30T04:55:17.557Z,0
2017-01-30T04:56:17.486Z,0
2017-01-30T04:57:17.862Z,0
2017-01-30T04:58:17.434Z,0
2017-01-30T04:59:17.412Z,0
2017-01-30T05:00:17.481Z,0
2017-01-30T05:01:16.971Z,0
2017-01-30T05:02:17.338Z,0
2017-01-30T05:03:17.716Z,0
2017-01-30T05:04:17.282Z,0
2017-01-30T05:05:17.757Z,0
2017-01-30T05:06:17.630Z,0
2017-01-30T05:07:17.765Z,0
2017-01-30T05:08:17.577Z,0
2017-01-30T05:09:17.558Z,0
2017-01-30T05:10:17.581Z,0
2017-01-30T05:11:17.105Z,0
2017-01-30T05:12:17.529Z,0
2017-01-30T05:13:17.050Z,0
2017-01-30T05:14:16.628Z,0
2017-01-30T05:15:16.998Z,0
2017-01-30T05:16:16.975Z,0
2017-01-30T05:17:17.360Z,0
2017-01-30T05:18:17.326Z,0
2017-01-30T05:19:16.498Z,0
2017-01-30T05:20:16.974Z,0
2017-01-30T05:21:16.467Z,0
2017-01-30T05:22:17.276Z,0
2017-01-30T05:23:17.201Z,0
2017-01-30T05:24:16.771Z,0
2017-01-30T05:25:16.341Z,0
2017-01-30T05:26:16.773Z,0
2017-01-30T05:27:17.103Z,0
2017-01-30T05:28:16.678Z,0
2017-01-30T05:29:16.662Z,0
2017-01-30T05:30:17.079Z,0
2017-01-30T05:31:16.598Z,0
2017-01-30T05:32:17.179Z,0
2017-01-30T05:33:16.144Z,0
2017-01-30T05:34:16.969Z,0
2017-01-30T05:35:16.899Z,0
2017-01-30T05:36:16.486Z,0
2017-01-30T05:37:16.638Z,0
2017-01-30T05:38:16.416Z,0
2017-01-30T05:39:16.398Z,0
2017-01-30T05:40:15.995Z,0
2017-01-30T05:41:16.744Z,0
2017-01-30T05:42:16.310Z,0
2017-01-30T05:43:16.701Z,0
2017-01-30T05:44:16.264Z,0
2017-01-30T05:45:16.686Z,0
2017-01-30T05:46:16.613Z,0
2017-01-30T05:47:16.222Z,0
2017-01-30T05:48:15.758Z,0
2017-01-30T05:49:16.137Z,0
2017-01-30T05:50:16.019Z,0
2017-01-30T05:51:16.503Z,0
2017-01-30T05:52:16.664Z,0
2017-01-30T05:53:16.039Z,0
2017-01-30T05:54:16.054Z,0
2017-01-30T05:55:16.378Z,0
2017-01-30T05:56:16.358Z,0
2017-01-30T05:57:16.340Z,0
2017-01-30T05:58:16.381Z,0
2017-01-30T05:59:16.282Z,0
2017-01-30T06:00:16.271Z,0
2017-01-30T06:01:16.234Z,0
2017-01-30T06:02:15.864Z,0
2017-01-30T06:03:15.386Z,0
2017-01-30T06:04:15.758Z,0
2017-01-30T06:05:15.392Z,0
2017-01-30T06:06:16.125Z,0
2017-01-30T06:07:15.683Z,0
2017-01-30T06:08:15.269Z,0
2017-01-30T06:09:16.085Z,0
2017-01-30T06:10:16.056Z,0
2017-01-30T06:11:15.595Z,0
2017-01-30T06:12:16.112Z,0
2017-01-30T06:13:15.925Z,0
2017-01-30T06:14:15.978Z,0
2017-01-30T06:15:15.934Z,0
2017-01-30T06:16:16.155Z,0
2017-01-30T06:17:15.494Z,0
2017-01-30T06:18:15.813Z,0
2017-01-30T06:19:15.785Z,0
2017-01-30T06:20:15.763Z,0
2017-01-30T06:21:15.332Z,0
2017-01-30T06:22:15.360Z,0
2017-01-30T06:23:15.689Z,0
2017-01-30T06:24:15.257Z,0
2017-01-30T06:25:15.635Z,0
2017-01-30T06:26:14.823Z,0
2017-01-30T06:27:15.602Z,0
2017-01-30T06:28:15.559Z,0
2017-01-30T06:29:15.226Z,0
2017-01-30T06:30:15.775Z,0
2017-01-30T06:31:15.140Z,0
2017-01-30T06:32:15.480Z,0
2017-01-30T06:33:15.437Z,0
2017-01-30T06:34:15.407Z,0
2017-01-30T06:35:15.395Z,0
2017-01-30T06:36:15.371Z,0
2017-01-30T06:37:14.936Z,0
2017-01-30T06:38:15.315Z,0
2017-01-30T06:39:15.286Z,0
2017-01-30T06:40:15.279Z,0
2017-01-30T06:41:14.827Z,0
2017-01-30T06:42:14.419Z,0
2017-01-30T06:43:14.782Z,0
2017-01-30T06:44:14.774Z,0
2017-01-30T06:45:14.778Z,0
2017-01-30T06:46:15.312Z,0
2017-01-30T06:47:14.682Z,0
2017-01-30T06:48:14.654Z,0
2017-01-30T06:49:14.906Z,0
2017-01-30T06:50:15.000Z,0
2017-01-30T06:51:14.190Z,0
2017-01-30T06:52:28.632Z,0
2017-01-30T06:53:15.158Z,0
2017-01-30T06:54:14.919Z,0
2017-01-30T06:55:14.887Z,0
2017-01-30T06:56:14.112Z,0
2017-01-30T06:57:14.436Z,0
2017-01-30T06:58:14.408Z,0
2017-01-30T06:59:14.413Z,0
2017-01-30T07:00:14.365Z,0
2017-01-30T07:01:14.731Z,0
2017-01-30T07:02:14.704Z,0
2017-01-30T07:03:14.282Z,0
2017-01-30T07:04:14.502Z,0
2017-01-30T07:05:14.637Z,0
2017-01-30T07:06:14.635Z,0
2017-01-30T07:07:14.637Z,0
2017-01-30T07:08:14.547Z,0
2017-01-30T07:09:13.740Z,0
2017-01-30T07:10:14.527Z,0
2017-01-30T07:11:14.298Z,0
2017-01-30T07:12:14.010Z,0
2017-01-30T07:13:14.427Z,0
2017-01-30T07:14:14.018Z,0
2017-01-30T07:15:14.420Z,0
2017-01-30T07:16:13.959Z,0
2017-01-30T07:17:13.557Z,0
2017-01-30T07:18:14.299Z,0
2017-01-30T07:19:13.920Z,0
2017-01-30T07:20:13.859Z,0
2017-01-30T07:21:13.829Z,0
2017-01-30T07:22:14.205Z,0
2017-01-30T07:23:13.378Z,0
2017-01-30T07:24:13.762Z,5
2017-01-30T07:25:13.738Z,5
2017-01-30T07:26:13.311Z,5
2017-01-30T07:27:14.077Z,5
2017-01-30T07:28:14.060Z,5
2017-01-30T07:29:13.634Z,0
2017-01-30T07:30:14.003Z,5
2017-01-30T07:31:13.982Z,5
2017-01-30T07:32:13.961Z,5
2017-01-30T07:33:13.537Z,5
2017-01-30T07:34:13.116Z,5
2017-01-30T07:35:13.919Z,5
2017-01-30T07:36:13.449Z,5
2017-01-30T07:37:13.229Z,5
2017-01-30T07:38:13.404Z,10
2017-01-30T07:39:13.784Z,10
2017-01-30T07:40:13.371Z,5
2017-01-30T07:41:13.929Z,5
2017-01-30T07:42:13.703Z,5
2017-01-30T07:43:12.880Z,5
2017-01-30T07:44:13.244Z,5
2017-01-30T07:45:13.229Z,5
2017-01-30T07:46:13.663Z,5
2017-01-30T07:47:13.403Z,5
2017-01-30T07:48:13.216Z,5
2017-01-30T07:49:13.131Z,5
2017-01-30T07:50:13.754Z,5
2017-01-30T07:51:13.072Z,5
2017-01-30T07:52:13.073Z,10
2017-01-30T07:53:13.431Z,10
2017-01-30T07:54:13.749Z,10
2017-01-30T07:55:12.972Z,10
2017-01-30T07:56:12.945Z,10
2017-01-30T07:57:12.135Z,10
2017-01-30T07:58:13.608Z,15
2017-01-30T07:59:12.879Z,15
2017-01-30T08:00:13.454Z,15
2017-01-30T08:01:13.237Z,20
2017-01-30T08:02:13.216Z,15
2017-01-30T08:03:12.783Z,15
2017-01-30T08:04:13.156Z,15
2017-01-30T08:05:12.343Z,20
2017-01-30T08:06:13.118Z,20
2017-01-30T08:07:12.727Z,20
2017-01-30T08:08:13.046Z,15
2017-01-30T08:09:12.230Z,20
2017-01-30T08:10:13.305Z,25
2017-01-30T08:11:12.183Z,20
2017-01-30T08:12:12.952Z,20
2017-01-30T08:13:12.131Z,20
2017-01-30T08:14:12.897Z,25
2017-01-30T08:15:12.474Z,25
2017-01-30T08:16:12.859Z,30
2017-01-30T08:17:12.930Z,25
2017-01-30T08:18:12.421Z,20
2017-01-30T08:19:12.414Z,25
2017-01-30T08:20:12.758Z,25
2017-01-30T08:21:12.735Z,25
2017-01-30T08:22:12.360Z,30
2017-01-30T08:23:12.334Z,30
2017-01-30T08:24:12.244Z,40
2017-01-30T08:25:12.626Z,45
2017-01-30T08:26:12.707Z,30
2017-01-30T08:27:12.633Z,35
2017-01-30T08:28:11.784Z,35
2017-01-30T08:29:12.169Z,30
2017-01-30T08:30:12.090Z,25
2017-01-30T08:31:12.078Z,25
2017-01-30T08:32:11.658Z,25
2017-01-30T08:33:12.431Z,25
2017-01-30T08:34:12.446Z,20
2017-01-30T08:35:12.375Z,25
2017-01-30T08:36:11.948Z,25
2017-01-30T08:37:12.340Z,25
2017-01-30T08:38:12.325Z,25
2017-01-30T08:39:11.876Z,25
2017-01-30T08:40:11.459Z,25
2017-01-30T08:41:11.487Z,25
2017-01-30T08:42:12.204Z,25
2017-01-30T08:43:12.170Z,30
2017-01-30T08:44:12.198Z,35
2017-01-30T08:45:11.328Z,30
2017-01-30T08:46:12.100Z,30
2017-01-30T08:47:12.082Z,35
2017-01-30T08:48:12.097Z,50
2017-01-30T08:49:12.025Z,40
2017-01-30T08:50:12.003Z,40
2017-01-30T08:51:11.566Z,45
2017-01-30T08:52:11.952Z,45
2017-01-30T08:53:10.337Z,60
2017-01-30T08:54:11.898Z,70
2017-01-30T08:55:11.490Z,60
2017-01-30T08:56:11.504Z,70
2017-01-30T08:57:11.418Z,75
2017-01-30T08:58:11.400Z,70
2017-01-30T08:59:11.774Z,80
2017-01-30T09:00:12.043Z,85
2017-01-30T09:01:11.328Z,75
2017-01-30T09:02:11.344Z,75
2017-01-30T09:03:10.877Z,80
2017-01-30T09:04:11.645Z,70
2017-01-30T09:05:11.671Z,80
2017-01-30T09:06:10.850Z,75
2017-01-30T09:07:11.577Z,65
2017-01-30T09:08:11.544Z,55
2017-01-30T09:09:11.524Z,60
2017-01-30T09:10:11.494Z,65
2017-01-30T09:11:11.482Z,70
2017-01-30T09:12:11.060Z,70
2017-01-30T09:13:11.070Z,65
2017-01-30T09:14:11.409Z,75
2017-01-30T09:15:11.380Z,75
2017-01-30T09:16:10.548Z,80
2017-01-30T09:17:10.127Z,80
2017-01-30T09:18:11.326Z,80
2017-01-30T09:19:11.474Z,80
2017-01-30T09:20:10.855Z,75
2017-01-30T09:21:10.432Z,95
2017-01-30T09:22:11.448Z,105
2017-01-30T09:23:11.180Z,95
2017-01-30T09:24:11.148Z,90
2017-01-30T09:25:11.143Z,85
2017-01-30T09:26:10.297Z,90
2017-01-30T09:27:11.108Z,80
2017-01-30T09:28:10.251Z,80
2017-01-30T09:29:10.676Z,75
2017-01-30T09:30:10.215Z,75
2017-01-30T09:31:10.186Z,85
2017-01-30T09:32:10.924Z,75
2017-01-30T09:33:10.910Z,85
2017-01-30T09:34:10.472Z,95
2017-01-30T09:35:10.441Z,90
2017-01-30T09:36:10.415Z,95
2017-01-30T09:37:10.012Z,130
2017-01-30T09:38:10.374Z,110
2017-01-30T09:39:10.771Z,100
2017-01-30T09:40:11.050Z,105
2017-01-30T09:41:10.679Z,95
2017-01-30T09:42:10.152Z,95
2017-01-30T09:43:10.684Z,95
2017-01-30T09:44:10.661Z,100
2017-01-30T09:45:09.871Z,105
2017-01-30T09:46:10.211Z,100
2017-01-30T09:47:09.789Z,105
2017-01-30T09:48:10.561Z,125
2017-01-30T09:49:10.145Z,105
2017-01-30T09:50:10.413Z,110
2017-01-30T09:51:10.524Z,95
2017-01-30T09:52:10.513Z,95
2017-01-30T09:53:10.449Z,90
2017-01-30T09:54:10.427Z,100
2017-01-30T09:55:10.369Z,95
2017-01-30T09:56:10.319Z,100
2017-01-30T09:57:10.305Z,90
2017-01-30T09:58:09.497Z,95
2017-01-30T09:59:10.265Z,100
2017-01-30T10:00:09.901Z,100
2017-01-30T10:01:10.254Z,120
2017-01-30T10:02:08.980Z,100
2017-01-30T10:03:09.754Z,105
2017-01-30T10:04:10.373Z,115
2017-01-30T10:05:10.109Z,110
2017-01-30T10:06:10.090Z,120
2017-01-30T10:07:10.174Z,100
2017-01-30T10:08:10.045Z,105
2017-01-30T10:09:09.609Z,115
2017-01-30T10:10:09.977Z,115
2017-01-30T10:11:09.554Z,115
2017-01-30T10:12:09.929Z,135
2017-01-30T10:13:09.902Z,120
2017-01-30T10:14:09.478Z,130
2017-01-30T10:15:09.859Z,130
2017-01-30T10:16:09.501Z,145
2017-01-30T10:17:09.073Z,140
2017-01-30T10:18:09.787Z,140
2017-01-30T10:19:09.774Z,135
2017-01-30T10:20:09.735Z,120
2017-01-30T10:21:09.303Z,125
2017-01-30T10:22:10.344Z,120
2017-01-30T10:23:09.270Z,100
2017-01-30T10:24:09.638Z,110
2017-01-30T10:25:09.216Z,110
2017-01-30T10:26:09.247Z,100
2017-01-30T10:27:09.176Z,120
2017-01-30T10:28:09.541Z,100
2017-01-30T10:29:09.123Z,115
2017-01-30T10:30:09.495Z,95
2017-01-30T10:31:09.067Z,100
2017-01-30T10:32:09.054Z,105
2017-01-30T10:33:09.080Z,105
2017-01-30T10:34:09.442Z,100
2017-01-30T10:35:09.671Z,100
2017-01-30T10:36:08.563Z,100
2017-01-30T10:37:08.926Z,110
2017-01-30T10:38:08.897Z,105
2017-01-30T10:39:08.870Z,105
2017-01-30T10:40:08.069Z,100
2017-01-30T10:41:08.847Z,125
2017-01-30T10:42:09.198Z,110
2017-01-30T10:43:08.828Z,145
2017-01-30T10:44:08.761Z,145
2017-01-30T10:45:08.725Z,170
2017-01-30T10:46:08.309Z,175
2017-01-30T10:47:09.205Z,140
2017-01-30T10:48:09.094Z,145
2017-01-30T10:49:09.035Z,145
2017-01-30T10:50:09.014Z,120
2017-01-30T10:51:08.998Z,120
2017-01-30T10:52:08.175Z,95
2017-01-30T10:53:08.559Z,90
2017-01-30T10:54:08.946Z,85
2017-01-30T10:55:08.881Z,80
2017-01-30T10:56:08.514Z,80
2017-01-30T10:57:08.841Z,105
2017-01-30T10:58:08.524Z,100
2017-01-30T10:59:07.999Z,100
2017-01-30T11:00:08.777Z,90
2017-01-30T11:01:08.339Z,105
2017-01-30T11:02:08.709Z,110
2017-01-30T11:03:08.701Z,135
2017-01-30T11:04:08.682Z,150
2017-01-30T11:05:08.252Z,125
2017-01-30T11:06:07.823Z,125
2017-01-30T11:07:08.197Z,145
2017-01-30T11:08:08.181Z,125
2017-01-30T11:09:08.218Z,145
2017-01-30T11:10:08.139Z,130
2017-01-30T11:11:08.537Z,150
2017-01-30T11:12:08.084Z,155
2017-01-30T11:13:08.107Z,150
2017-01-30T11:14:08.463Z,170
2017-01-30T11:15:08.131Z,155
2017-01-30T11:16:09.173Z,160
2017-01-30T11:17:08.003Z,135
2017-01-30T11:18:08.375Z,135
2017-01-30T11:19:07.597Z,130
2017-01-30T11:20:07.525Z,115
2017-01-30T11:21:08.297Z,95
2017-01-30T11:22:07.928Z,100
2017-01-30T11:23:08.265Z,85
2017-01-30T11:24:08.277Z,70
2017-01-30T11:25:08.307Z,75
2017-01-30T11:26:08.227Z,75
2017-01-30T11:27:08.166Z,70
2017-01-30T11:28:07.724Z,70
2017-01-30T11:29:08.169Z,65
2017-01-30T11:30:07.286Z,65
2017-01-30T11:31:08.056Z,70
2017-01-30T11:32:08.037Z,75
2017-01-30T11:33:07.607Z,75
2017-01-30T11:34:08.029Z,85
2017-01-30T11:35:07.960Z,90
2017-01-30T11:36:07.945Z,100
2017-01-30T11:37:07.964Z,100
2017-01-30T11:38:07.539Z,105
2017-01-30T11:39:07.477Z,105
2017-01-30T11:40:07.452Z,120
2017-01-30T11:41:07.452Z,125
2017-01-30T11:42:07.460Z,140
2017-01-30T11:43:07.773Z,140
2017-01-30T11:44:07.743Z,120
2017-01-30T11:45:07.233Z,110
2017-01-30T11:46:07.299Z,125
2017-01-30T11:47:06.879Z,125
2017-01-30T11:48:07.242Z,130
2017-01-30T11:49:06.834Z,120
2017-01-30T11:50:07.654Z,125
2017-01-30T11:51:07.590Z,135
2017-01-30T11:52:06.855Z,135
2017-01-30T11:53:21.615Z,140
2017-01-30T11:54:07.500Z,125
2017-01-30T11:55:07.084Z,150
2017-01-30T11:56:07.462Z,135
2017-01-30T11:57:06.641Z,150
2017-01-30T11:58:07.055Z,140
2017-01-30T11:59:06.987Z,140
2017-01-30T12:00:07.008Z,155
2017-01-30T12:01:06.939Z,130
2017-01-30T12:02:07.373Z,155
2017-01-30T12:03:07.289Z,160
2017-01-30T12:04:06.475Z,170
2017-01-30T12:05:06.912Z,160
2017-01-30T12:06:06.818Z,160
2017-01-30T12:07:07.256Z,145
2017-01-30T12:08:07.167Z,160
2017-01-30T12:09:07.151Z,160
2017-01-30T12:10:07.183Z,125
2017-01-30T12:11:07.130Z,100
2017-01-30T12:12:06.351Z,115
2017-01-30T12:13:06.659Z,110
2017-01-30T12:14:06.668Z,135
2017-01-30T12:15:06.611Z,140
2017-01-30T12:16:06.627Z,155
2017-01-30T12:17:06.164Z,145
2017-01-30T12:18:06.531Z,165
2017-01-30T12:19:06.912Z,130
2017-01-30T12:20:06.570Z,130
2017-01-30T12:21:06.865Z,120
2017-01-30T12:22:06.833Z,115
2017-01-30T12:23:06.420Z,105
2017-01-30T12:24:06.801Z,95
2017-01-30T12:25:06.369Z,95
2017-01-30T12:26:05.957Z,75
2017-01-30T12:27:05.929Z,50
2017-01-30T12:28:06.699Z,65
2017-01-30T12:29:06.682Z,55
2017-01-30T12:30:06.257Z,55
2017-01-30T12:31:06.633Z,55
2017-01-30T12:32:06.199Z,50
2017-01-30T12:33:05.776Z,65
2017-01-30T12:34:05.359Z,60
2017-01-30T12:35:06.141Z,80
2017-01-30T12:36:05.718Z,85
2017-01-30T12:37:06.519Z,85
2017-01-30T12:38:06.760Z,85
2017-01-30T12:39:05.643Z,90
2017-01-30T12:40:06.022Z,95
2017-01-30T12:41:06.396Z,95
2017-01-30T12:42:06.383Z,110
2017-01-30T12:43:05.950Z,115
2017-01-30T12:44:06.350Z,105
2017-01-30T12:45:06.320Z,115
2017-01-30T12:46:06.508Z,115
2017-01-30T12:47:06.284Z,130
2017-01-30T12:48:05.429Z,125
2017-01-30T12:49:05.851Z,115
2017-01-30T12:50:06.173Z,115
2017-01-30T12:51:06.156Z,100
2017-01-30T12:52:05.343Z,100
2017-01-30T12:53:06.128Z,85
2017-01-30T12:54:05.685Z,95
2017-01-30T12:55:05.672Z,85
2017-01-30T12:56:06.034Z,75
2017-01-30T12:57:06.016Z,75
2017-01-30T12:58:05.290Z,90
2017-01-30T12:59:06.303Z,110
2017-01-30T13:00:05.536Z,125
2017-01-30T13:01:05.938Z,115
2017-01-30T13:02:05.921Z,150
2017-01-30T13:03:05.129Z,175
2017-01-30T13:04:05.855Z,155
2017-01-30T13:05:05.817Z,160
2017-01-30T13:06:04.204Z,155
2017-01-30T13:07:05.385Z,130
2017-01-30T13:08:04.955Z,115
2017-01-30T13:09:04.131Z,115
2017-01-30T13:10:05.315Z,105
2017-01-30T13:11:05.299Z,110
2017-01-30T13:12:05.659Z,95
2017-01-30T13:13:05.237Z,85
2017-01-30T13:14:05.213Z,90
2017-01-30T13:15:05.640Z,95
2017-01-30T13:16:05.563Z,90
2017-01-30T13:17:05.149Z,90
2017-01-30T13:18:05.536Z,85
2017-01-30T13:19:05.487Z,80
2017-01-30T13:20:05.466Z,85
2017-01-30T13:21:05.438Z,70
2017-01-30T13:22:05.414Z,80
2017-01-30T13:23:05.000Z,60
2017-01-30T13:24:05.387Z,60
2017-01-30T13:25:04.960Z,45
2017-01-30T13:26:04.527Z,55
2017-01-30T13:27:04.565Z,55
2017-01-30T13:28:04.881Z,60
2017-01-30T13:29:05.257Z,55
2017-01-30T13:30:05.283Z,60
2017-01-30T13:31:05.205Z,60
2017-01-30T13:32:05.224Z,60
2017-01-30T13:33:04.362Z,50
2017-01-30T13:34:06.644Z,55
2017-01-30T13:35:05.110Z,55
2017-01-30T13:36:05.094Z,60
2017-01-30T13:37:04.678Z,60
2017-01-30T13:38:03.900Z,60
2017-01-30T13:39:04.665Z,65
2017-01-30T13:40:04.594Z,60
2017-01-30T13:41:04.922Z,60
2017-01-30T13:42:05.001Z,50
2017-01-30T13:43:04.525Z,45
2017-01-30T13:44:04.105Z,35
2017-01-30T13:45:04.880Z,35
2017-01-30T13:46:04.469Z,35
2017-01-30T13:47:04.441Z,35
2017-01-30T13:48:04.808Z,40
2017-01-30T13:49:04.787Z,50
2017-01-30T13:50:03.964Z,45
2017-01-30T13:51:04.395Z,50
2017-01-30T13:52:04.712Z,50
2017-01-30T13:53:04.695Z,55
2017-01-30T13:54:04.270Z,45
2017-01-30T13:55:04.245Z,40
2017-01-30T13:56:04.672Z,40
2017-01-30T13:57:04.596Z,45
2017-01-30T13:58:04.564Z,40
2017-01-30T13:59:04.549Z,35
2017-01-30T14:00:04.523Z,35
2017-01-30T14:01:04.001Z,35
2017-01-30T14:02:04.066Z,35
2017-01-30T14:03:04.054Z,35
2017-01-30T14:04:04.044Z,30
2017-01-30T14:05:04.416Z,30
2017-01-30T14:06:04.438Z,30
2017-01-30T14:07:04.007Z,35
2017-01-30T14:08:04.395Z,35
2017-01-30T14:09:03.914Z,30
2017-01-30T14:10:03.890Z,30
2017-01-30T14:11:04.315Z,30
2017-01-30T14:12:04.292Z,30
2017-01-30T14:13:04.216Z,25
2017-01-30T14:14:04.204Z,30
2017-01-30T14:15:03.779Z,30
2017-01-30T14:16:04.169Z,35
2017-01-30T14:17:04.076Z,30
2017-01-30T14:18:03.307Z,35
2017-01-30T14:19:04.082Z,35
2017-01-30T14:20:04.054Z,45
2017-01-30T14:21:03.628Z,40
2017-01-30T14:22:03.615Z,40
2017-01-30T14:23:03.979Z,45
2017-01-30T14:24:03.553Z,45
2017-01-30T14:25:04.260Z,40
2017-01-30T14:26:03.401Z,40